Time;durP1;ratioP1;P1;durP2;ratioP2;P2;SDS_P1;SDS_P2;PMS_P1;PMS_P2;Temp;Humidity;BMP_temperature;BMP_pressure;BME280_temperature;BME280_humidity;BME280_pressure;Samples;Min_cycle;Max_cycle;Signal;HPM_P1;HPM_P2
2022/09/29 00:00:34;;;;;;;5.85;2.35;;;;;;;;;;5111384;28;20054;-77
2022/09/29 00:04:25;;;;;;;8.82;3.80;;;;;;;;;;5111822;27;20450;-77
2022/09/29 00:09:34;;;;;;;8.43;4.15;;;;;;;;;;5111574;27;20462;-77
2022/09/29 00:14:13;;;;;;;6.85;2.95;;;;;;;;;;5111545;27;20461;-77
2022/09/29 00:16:39;;;;;;;6.65;2.60;;;;;;;;;;5110912;28;20051;-77
2022/09/29 00:19:05;;;;;;;6.38;2.63;;;;;;;;;;5111545;28;20028;-77
2022/09/29 00:22:00;;;;;;;7.20;1.88;;;;;;;;;;5111977;27;20561;-77
2022/09/29 00:24:27;;;;;;;5.78;2.25;;;;;;;;;;5109715;28;20032;-77
2022/09/29 00:26:53;;;;;;;6.95;2.20;;;;;;;;;;5110031;28;20052;-77
2022/09/29 00:29:19;;;;;;;4.60;2.17;;;;;;;;;;5111304;28;20020;-77
2022/09/29 00:31:45;;;;;;;4.90;2.10;;;;;;;;;;5110821;28;20468;-78
2022/09/29 00:34:11;;;;;;;4.82;2.00;;;;;;;;;;5111277;28;20028;-78
2022/09/29 00:37:04;;;;;;;5.50;2.90;;;;;;;;;;5111628;27;20768;-78
2022/09/29 00:39:31;;;;;;;5.75;2.25;;;;;;;;;;5110174;28;20038;-77
2022/09/29 00:44:14;;;;;;;5.60;2.38;;;;;;;;;;5111149;27;20842;-77
2022/09/29 00:47:04;;;;;;;10.35;2.10;;;;;;;;;;5111730;27;20438;-77
2022/09/29 00:49:36;;;;;;;5.90;1.92;;;;;;;;;;5111511;28;20051;-77
2022/09/29 00:54:15;;;;;;;4.10;1.67;;;;;;;;;;5112189;27;20446;-77
2022/09/29 00:57:33;;;;;;;7.07;3.22;;;;;;;;;;5111716;27;20576;-77
2022/09/29 01:03:21;;;;;;;5.65;2.55;;;;;;;;;;5112355;27;20445;-78
2022/09/29 01:05:50;;;;;;;7.72;2.05;;;;;;;;;;5077528;28;20479;-79
2022/09/29 01:08:20;;;;;;;4.35;2.03;;;;;;;;;;5111410;28;20035;-78
2022/09/29 01:10:47;;;;;;;4.75;1.92;;;;;;;;;;5111387;28;20024;-78
2022/09/29 01:13:13;;;;;;;5.03;2.03;;;;;;;;;;5111009;28;20024;-78
2022/09/29 01:15:40;;;;;;;5.50;2.10;;;;;;;;;;5111468;28;20028;-78
2022/09/29 01:18:51;;;;;;;6.28;2.40;;;;;;;;;;5111533;27;20389;-77
2022/09/29 01:21:17;;;;;;;5.43;2.55;;;;;;;;;;5126842;28;20035;-77
2022/09/29 01:24:44;;;;;;;5.50;2.83;;;;;;;;;;5112172;27;20969;-77
2022/09/29 01:27:16;;;;;;;5.82;2.47;;;;;;;;;;5111234;28;20065;-77
2022/09/29 01:30:59;;;;;;;5.68;3.00;;;;;;;;;;5112002;27;20884;-77
2022/09/29 01:33:31;;;;;;;6.10;2.63;;;;;;;;;;5111261;28;20511;-77
2022/09/29 01:40:51;;;;;;;5.53;2.35;;;;;;;;;;5111009;27;20115;-77
2022/09/29 01:44:44;;;;;;;3.78;1.67;;;;;;;;;;5111506;27;20401;-77
2022/09/29 01:48:08;;;;;;;4.03;1.63;;;;;;;;;;5111351;27;20430;-78
2022/09/29 01:52:55;;;;;;;3.50;1.65;;;;;;;;;;5111717;27;20439;-77
2022/09/29 01:55:23;;;;;;;7.63;3.42;;;;;;;;;;5111033;28;20073;-76
2022/09/29 01:58:10;;;;;;;7.00;2.28;;;;;;;;;;5111690;27;20393;-78
2022/09/29 02:00:38;;;;;;;4.22;1.88;;;;;;;;;;5111407;28;20020;-77
2022/09/29 02:04:43;;;;;;;4.05;1.90;;;;;;;;;;5111882;27;20389;-77
2022/09/29 02:07:16;;;;;;;3.83;1.80;;;;;;;;;;5110188;28;20032;-77
2022/09/29 02:09:44;;;;;;;4.60;1.90;;;;;;;;;;5111482;28;20031;-77
2022/09/29 02:12:13;;;;;;;3.95;1.90;;;;;;;;;;5111367;28;20024;-77
2022/09/29 02:16:22;;;;;;;3.70;1.85;;;;;;;;;;5111540;27;20397;-77
2022/09/29 02:18:54;;;;;;;3.95;2.00;;;;;;;;;;5111417;28;20384;-77
2022/09/29 02:21:21;;;;;;;5.88;2.42;;;;;;;;;;5111671;28;20102;-76
2022/09/29 02:23:47;;;;;;;6.28;2.63;;;;;;;;;;5109685;28;20028;-78
2022/09/29 02:26:14;;;;;;;5.75;1.95;;;;;;;;;;5111393;28;20099;-77
2022/09/29 02:28:41;;;;;;;5.35;2.42;;;;;;;;;;5111339;28;20020;-77
2022/09/29 02:31:08;;;;;;;7.25;2.97;;;;;;;;;;5110862;28;20106;-77
2022/09/29 02:33:34;;;;;;;7.20;4.10;;;;;;;;;;5111105;28;20028;-77
2022/09/29 02:36:12;;;;;;;10.07;3.28;;;;;;;;;;5111406;28;20074;-78
2022/09/29 02:38:41;;;;;;;4.68;2.58;;;;;;;;;;5110724;28;20020;-77
2022/09/29 02:43:09;;;;;;;7.43;2.90;;;;;;;;;;5111606;27;20396;-77
2022/09/29 02:46:38;;;;;;;6.15;2.50;;;;;;;;;;5111648;27;20401;-77
2022/09/29 02:49:22;;;;;;;6.13;3.47;;;;;;;;;;5111952;28;20054;-77
2022/09/29 02:51:51;;;;;;;7.38;2.83;;;;;;;;;;5111040;28;20023;-77
2022/09/29 02:56:49;;;;;;;5.43;2.30;;;;;;;;;;5111593;27;20404;-77
2022/09/29 03:00:54;;;;;;;7.63;2.75;;;;;;;;;;5112041;27;20388;-77
2022/09/29 03:03:20;;;;;;;4.50;2.20;;;;;;;;;;5111555;28;20020;-77
2022/09/29 03:06:35;;;;;;;5.38;2.60;;;;;;;;;;5111148;27;20389;-77
2022/09/29 03:09:02;;;;;;;6.55;2.58;;;;;;;;;;5111348;28;20547;-77
2022/09/29 03:11:28;;;;;;;6.47;2.88;;;;;;;;;;5111414;28;20030;-77
2022/09/29 03:13:54;;;;;;;5.68;2.67;;;;;;;;;;5110915;28;20027;-77
2022/09/29 03:16:20;;;;;;;5.68;2.85;;;;;;;;;;5109948;28;20030;-77
2022/09/29 03:18:46;;;;;;;4.47;2.47;;;;;;;;;;5111119;28;20043;-77
2022/09/29 03:21:12;;;;;;;6.05;2.53;;;;;;;;;;5111516;28;20423;-77
2022/09/29 03:23:39;;;;;;;7.45;2.08;;;;;;;;;;5111030;28;20540;-77
2022/09/29 03:26:05;;;;;;;6.82;3.45;;;;;;;;;;5110425;28;20476;-77
2022/09/29 03:28:53;;;;;;;6.03;3.15;;;;;;;;;;5111771;27;20437;-77
2022/09/29 03:31:19;;;;;;;4.03;2.20;;;;;;;;;;5110050;28;20034;-77
2022/09/29 03:33:45;;;;;;;8.68;2.53;;;;;;;;;;5110861;28;20383;-77
2022/09/29 03:36:11;;;;;;;6.78;2.42;;;;;;;;;;5111382;28;20040;-78
2022/09/29 03:38:38;;;;;;;6.35;2.13;;;;;;;;;;5111240;28;20020;-77
2022/09/29 03:41:20;;;;;;;3.95;2.13;;;;;;;;;;5111249;27;20389;-77
2022/09/29 03:44:24;;;;;;;10.32;3.08;;;;;;;;;;5111677;27;20792;-77
2022/09/29 03:50:10;;;;;;;5.82;2.67;;;;;;;;;;5173727;27;20892;-77
2022/09/29 03:52:36;;;;;;;4.82;2.30;;;;;;;;;;5173529;27;20023;-78
2022/09/29 03:55:02;;;;;;;5.78;2.42;;;;;;;;;;5172857;27;20478;-78
2022/09/29 03:57:29;;;;;;;6.43;2.95;;;;;;;;;;5172074;27;20041;-78
2022/09/29 03:59:55;;;;;;;8.00;2.33;;;;;;;;;;5173227;27;20022;-78
2022/09/29 04:02:22;;;;;;;6.30;2.40;;;;;;;;;;5172847;27;20470;-78
2022/09/29 04:04:48;;;;;;;5.15;2.40;;;;;;;;;;5173406;27;20029;-78
2022/09/29 04:07:14;;;;;;;7.93;3.35;;;;;;;;;;5173351;27;20022;-78
2022/09/29 04:10:02;;;;;;;11.40;2.85;;;;;;;;;;5111031;27;20990;-78
2022/09/29 04:12:28;;;;;;;7.40;3.03;;;;;;;;;;5111286;28;20042;-78
2022/09/29 04:16:58;;;;;;;6.97;2.00;;;;;;;;;;5111121;27;20764;-78
2022/09/29 04:19:24;;;;;;;3.90;2.00;;;;;;;;;;5111454;28;20418;-78
2022/09/29 04:21:50;;;;;;;5.95;2.40;;;;;;;;;;5111271;28;20410;-78
2022/09/29 04:24:16;;;;;;;5.10;2.55;;;;;;;;;;5110824;28;20432;-78
2022/09/29 04:26:43;;;;;;;6.30;2.58;;;;;;;;;;5111164;28;20034;-77
2022/09/29 04:29:10;;;;;;;8.55;3.38;;;;;;;;;;5126612;28;20020;-77
2022/09/29 04:31:36;;;;;;;8.57;3.88;;;;;;;;;;5111382;28;20031;-78
2022/09/29 04:34:50;;;;;;;10.65;4.30;;;;;;;;;;5111849;27;20457;-78
2022/09/29 04:37:17;;;;;;;11.63;4.82;;;;;;;;;;5111306;28;20028;-78
2022/09/29 04:41:21;;;;;;;10.60;4.13;;;;;;;;;;5111646;27;20450;-79
2022/09/29 04:43:47;;;;;;;13.70;5.30;;;;;;;;;;5110940;28;20119;-78
2022/09/29 04:46:14;;;;;;;9.73;4.20;;;;;;;;;;5111579;28;20023;-78
2022/09/29 04:48:40;;;;;;;10.95;4.63;;;;;;;;;;5111376;28;20027;-78
2022/09/29 04:52:01;;;;;;;14.18;5.82;;;;;;;;;;5111021;27;20397;-78
2022/09/29 04:54:34;;;;;;;14.02;4.93;;;;;;;;;;5111355;28;20027;-78
2022/09/29 04:59:12;;;;;;;11.48;3.20;;;;;;;;;;5111070;27;20888;-78
2022/09/29 05:01:38;;;;;;;5.15;2.35;;;;;;;;;;5111306;28;20051;-78
2022/09/29 05:04:04;;;;;;;10.32;3.08;;;;;;;;;;5110849;28;20428;-78
2022/09/29 05:06:30;;;;;;;8.25;3.20;;;;;;;;;;5108772;28;20059;-78
2022/09/29 05:09:27;;;;;;;7.50;3.22;;;;;;;;;;5109546;27;20413;-79
2022/09/29 05:11:53;;;;;;;7.35;2.97;;;;;;;;;;5109042;28;20023;-78
2022/09/29 05:15:07;;;;;;;8.73;3.58;;;;;;;;;;5109395;27;20393;-80
2022/09/29 05:17:33;;;;;;;13.27;4.30;;;;;;;;;;5109531;28;20019;-77
2022/09/29 05:19:59;;;;;;;7.85;4.00;;;;;;;;;;5107691;28;20077;-78
2022/09/29 05:22:25;;;;;;;11.07;4.45;;;;;;;;;;5103843;28;20472;-74
2022/09/29 05:24:53;;;;;;;10.80;4.57;;;;;;;;;;5091114;28;20023;-73
2022/09/29 05:27:20;;;;;;;11.70;4.40;;;;;;;;;;5106732;28;20081;-73
2022/09/29 05:31:00;;;;;;;10.85;4.25;;;;;;;;;;5107340;27;20389;-75
2022/09/29 05:33:26;;;;;;;8.65;3.85;;;;;;;;;;5082104;28;20041;-73
2022/09/29 05:36:49;;;;;;;9.77;4.70;;;;;;;;;;5100186;27;20401;-72
2022/09/29 05:39:16;;;;;;;9.98;4.45;;;;;;;;;;5089623;28;20488;-71
2022/09/29 05:41:42;;;;;;;8.57;5.00;;;;;;;;;;5088187;28;20024;-74
2022/09/29 05:44:39;;;;;;;15.18;4.97;;;;;;;;;;5047504;28;20440;-71
2022/09/29 05:47:05;;;;;;;7.80;4.03;;;;;;;;;;5045704;28;20037;-74
2022/09/29 05:49:32;;;;;;;11.05;4.28;;;;;;;;;;5047191;28;20023;-72
2022/09/29 05:51:58;;;;;;;10.07;4.75;;;;;;;;;;5046799;28;20436;-72
2022/09/29 05:54:26;;;;;;;10.02;4.50;;;;;;;;;;5046849;28;20340;-72
2022/09/29 05:56:52;;;;;;;8.02;3.63;;;;;;;;;;5047977;28;20020;-72
2022/09/29 05:59:29;;;;;;;10.38;5.25;;;;;;;;;;5108374;27;20446;-72
2022/09/29 06:01:55;;;;;;;13.25;6.38;;;;;;;;;;5107564;28;20023;-73
2022/09/29 06:04:21;;;;;;;11.43;5.40;;;;;;;;;;5109731;28;20043;-78
2022/09/29 06:06:47;;;;;;;13.23;4.95;;;;;;;;;;5110831;28;20030;-77
2022/09/29 06:09:14;;;;;;;11.40;4.68;;;;;;;;;;5110299;28;20031;-78
2022/09/29 06:11:40;;;;;;;12.65;5.07;;;;;;;;;;5110383;28;20095;-80
2022/09/29 06:14:06;;;;;;;10.60;4.68;;;;;;;;;;5110689;28;20020;-76
2022/09/29 06:16:33;;;;;;;17.88;5.43;;;;;;;;;;5109928;28;20020;-73
2022/09/29 06:19:00;;;;;;;11.70;4.45;;;;;;;;;;5110421;28;20036;-74
2022/09/29 06:22:07;;;;;;;9.13;3.97;;;;;;;;;;5109959;27;20318;-76
2022/09/29 06:26:22;;;;;;;11.75;4.75;;;;;;;;;;5065581;28;20379;-75
2022/09/29 06:28:48;;;;;;;13.85;5.78;;;;;;;;;;5064376;28;20033;-75
2022/09/29 06:37:46;;;;;;;12.23;4.13;;;;;;;;;;5061060;28;20131;-75
2022/09/29 06:40:13;;;;;;;10.07;3.58;;;;;;;;;;5055647;28;20381;-76
2022/09/29 06:43:28;;;;;;;10.95;3.90;;;;;;;;;;5109271;27;20389;-77
2022/09/29 06:47:14;;;;;;;10.82;4.63;;;;;;;;;;5110943;27;20409;-79
2022/09/29 06:49:40;;;;;;;8.50;5.28;;;;;;;;;;5110147;28;20037;-78
2022/09/29 06:52:36;;;;;;;7.15;3.20;;;;;;;;;;5109603;27;20446;-72
2022/09/29 06:55:02;;;;;;;7.38;3.00;;;;;;;;;;5125237;28;20024;-78
2022/09/29 06:57:41;;;;;;;9.93;3.63;;;;;;;;;;5105749;27;20461;-77
2022/09/29 07:00:08;;;;;;;8.60;3.05;;;;;;;;;;5110121;28;20046;-76
2022/09/29 07:02:34;;;;;;;9.45;3.20;;;;;;;;;;5107632;28;20466;-77
2022/09/29 07:05:00;;;;;;;5.45;2.63;;;;;;;;;;5104509;28;20016;-76
2022/09/29 07:07:30;;;;;;;21.13;5.75;;;;;;;;;;5103803;28;20023;-76
2022/09/29 07:09:56;;;;;;;6.47;2.47;;;;;;;;;;5109854;28;20016;-76
2022/09/29 07:14:24;;;;;;;9.57;3.10;;;;;;;;;;5109135;27;20396;-75
2022/09/29 07:18:15;;;;;;;7.05;3.30;;;;;;;;;;5108220;27;20454;-75
2022/09/29 07:21:17;;;;;;;8.43;3.67;;;;;;;;;;5103766;27;20671;-78
2022/09/29 07:24:29;;;;;;;8.38;2.80;;;;;;;;;;5107855;27;20704;-76
2022/09/29 07:28:56;;;;;;;7.25;3.38;;;;;;;;;;5101219;27;20454;-79
2022/09/29 07:31:23;;;;;;;7.38;3.60;;;;;;;;;;5089847;28;20411;-77
2022/09/29 07:33:49;;;;;;;7.60;3.25;;;;;;;;;;5089822;28;20380;-76
2022/09/29 07:36:17;;;;;;;9.77;3.45;;;;;;;;;;5088715;28;20435;-76
2022/09/29 07:38:45;;;;;;;8.68;3.70;;;;;;;;;;5088134;28;20028;-77
2022/09/29 07:41:11;;;;;;;9.02;3.50;;;;;;;;;;5089976;28;20020;-77
2022/09/29 07:43:38;;;;;;;8.88;3.50;;;;;;;;;;5090587;28;20387;-77
2022/09/29 07:47:14;;;;;;;7.75;3.97;;;;;;;;;;5109276;27;20450;-75
2022/09/29 07:51:17;;;;;;;11.35;3.78;;;;;;;;;;5108618;27;20441;-76
2022/09/29 07:53:43;;;;;;;7.50;3.53;;;;;;;;;;5109503;28;20121;-77
2022/09/29 07:59:56;;;;;;;8.18;3.22;;;;;;;;;;5081920;28;20408;-77
2022/09/29 08:05:03;;;;;;;8.25;2.92;;;;;;;;;;5131544;27;20385;-78
2022/09/29 08:07:29;;;;;;;6.47;3.00;;;;;;;;;;5110600;28;20031;-76
2022/09/29 08:09:55;;;;;;;5.57;2.83;;;;;;;;;;5129665;28;20052;-76
2022/09/29 08:13:16;;;;;;;8.60;2.50;;;;;;;;;;5068655;28;20395;-75
2022/09/29 08:15:42;;;;;;;5.38;2.63;;;;;;;;;;5069804;28;20027;-77
2022/09/29 08:18:08;;;;;;;6.93;2.70;;;;;;;;;;5054088;28;20029;-77
2022/09/29 08:20:37;;;;;;;5.72;2.17;;;;;;;;;;5061797;28;20021;-80
2022/09/29 08:25:08;;;;;;;7.20;3.17;;;;;;;;;;5121259;27;20335;-79
2022/09/29 08:27:34;;;;;;;5.53;2.78;;;;;;;;;;5110157;28;20418;-80
2022/09/29 08:30:00;;;;;;;7.50;2.80;;;;;;;;;;5090800;28;20074;-80
2022/09/29 08:32:27;;;;;;;6.40;2.45;;;;;;;;;;5109324;28;20103;-81
2022/09/29 08:34:53;;;;;;;7.80;3.20;;;;;;;;;;5108105;28;20024;-76
2022/09/29 08:37:19;;;;;;;9.80;3.13;;;;;;;;;;5090019;28;20428;-77
2022/09/29 08:43:00;;;;;;;5.43;2.50;;;;;;;;;;5108747;27;20377;-78
2022/09/29 08:45:30;;;;;;;8.13;2.85;;;;;;;;;;5106500;28;20019;-76
2022/09/29 08:52:00;;;;;;;7.07;2.58;;;;;;;;;;5106140;27;20446;-77
2022/09/29 08:55:17;;;;;;;7.60;2.17;;;;;;;;;;5065853;28;20392;-79
2022/09/29 08:59:16;;;;;;;4.90;1.90;;;;;;;;;;5106232;27;20405;-74
2022/09/29 09:02:00;;;;;;;3.42;1.65;;;;;;;;;;5106384;28;20139;-76
2022/09/29 09:06:07;;;;;;;5.78;2.00;;;;;;;;;;5106910;27;21056;-76
2022/09/29 09:08:51;;;;;;;5.25;2.13;;;;;;;;;;5105996;28;20016;-78
2022/09/29 09:11:28;;;;;;;6.95;2.40;;;;;;;;;;5106207;27;20380;-71
2022/09/29 09:15:13;;;;;;;5.47;1.95;;;;;;;;;;5065566;28;20400;-69
2022/09/29 09:17:43;;;;;;;5.35;2.00;;;;;;;;;;5067721;28;20016;-70
2022/09/29 09:20:21;;;;;;;3.70;1.70;;;;;;;;;;5068357;28;20420;-70
2022/09/29 09:22:47;;;;;;;4.43;1.30;;;;;;;;;;5069101;28;20039;-70
2022/09/29 09:25:19;;;;;;;4.90;2.25;;;;;;;;;;5065559;28;20059;-70
2022/09/29 09:27:48;;;;;;;5.20;2.38;;;;;;;;;;5067093;28;20427;-72
2022/09/29 09:30:19;;;;;;;5.30;2.38;;;;;;;;;;5065761;28;20033;-73
2022/09/29 09:32:50;;;;;;;4.57;1.90;;;;;;;;;;5066767;28;20050;-73
2022/09/29 09:35:16;;;;;;;3.95;1.48;;;;;;;;;;5065471;28;20465;-73
2022/09/29 09:37:43;;;;;;;4.28;1.75;;;;;;;;;;5068033;28;20025;-72
2022/09/29 09:40:17;;;;;;;2.92;1.50;;;;;;;;;;5068107;28;20029;-73
2022/09/29 09:42:46;;;;;;;7.90;1.80;;;;;;;;;;5067830;28;20025;-73
2022/09/29 09:45:16;;;;;;;2.33;1.20;;;;;;;;;;5069155;28;20354;-77
2022/09/29 09:47:48;;;;;;;4.47;1.55;;;;;;;;;;5066680;28;20032;-74
2022/09/29 09:50:22;;;;;;;2.73;1.10;;;;;;;;;;5068825;28;20021;-79
2022/09/29 09:55:05;;;;;;;3.92;1.63;;;;;;;;;;5109992;27;20906;-77
2022/09/29 09:57:39;;;;;;;5.32;1.73;;;;;;;;;;5110006;28;20357;-78
2022/09/29 10:00:07;;;;;;;4.07;1.50;;;;;;;;;;5110001;28;20032;-78
2022/09/29 10:02:54;;;;;;;1.65;1.05;;;;;;;;;;5110065;27;20389;-78
2022/09/29 10:05:26;;;;;;;4.28;1.77;;;;;;;;;;5110681;28;20054;-77
2022/09/29 10:07:53;;;;;;;1.70;1.00;;;;;;;;;;5109930;28;20015;-76
2022/09/29 10:10:21;;;;;;;4.20;1.30;;;;;;;;;;5110031;28;20069;-69
2022/09/29 10:12:51;;;;;;;3.58;1.50;;;;;;;;;;5108639;28;20375;-73
2022/09/29 10:16:14;;;;;;;4.40;1.40;;;;;;;;;;5170767;27;20307;-73
2022/09/29 10:18:40;;;;;;;5.60;1.63;;;;;;;;;;5146299;27;20106;-73
2022/09/29 10:22:20;;;;;;;3.70;1.15;;;;;;;;;;5102041;27;20665;-72
2022/09/29 10:24:46;;;;;;;2.22;1.30;;;;;;;;;;5110390;28;20027;-72
2022/09/29 10:27:18;;;;;;;5.00;1.63;;;;;;;;;;5110144;28;20027;-70
2022/09/29 10:29:49;;;;;;;2.92;1.30;;;;;;;;;;5109928;28;20024;-73
2022/09/29 10:32:35;;;;;;;1.95;0.90;;;;;;;;;;5069233;28;20024;-73
2022/09/29 10:35:04;;;;;;;5.22;1.60;;;;;;;;;;5095030;28;20377;-74
2022/09/29 10:37:33;;;;;;;2.20;1.00;;;;;;;;;;5090748;28;20427;-72
2022/09/29 10:40:12;;;;;;;3.00;1.25;;;;;;;;;;5088529;28;20412;-72
2022/09/29 10:42:39;;;;;;;2.55;1.23;;;;;;;;;;5092591;28;20032;-72
2022/09/29 10:45:13;;;;;;;3.28;1.60;;;;;;;;;;5106386;28;20020;-74
2022/09/29 10:47:41;;;;;;;2.45;0.85;;;;;;;;;;5108560;28;20055;-73
2022/09/29 10:51:30;;;;;;;2.95;1.48;;;;;;;;;;5100152;27;20128;-73
2022/09/29 10:55:59;;;;;;;4.65;1.35;;;;;;;;;;5099191;27;20405;-78
2022/09/29 10:58:25;;;;;;;2.05;1.20;;;;;;;;;;5091469;28;20112;-78
2022/09/29 11:03:30;;;;;;;2.50;1.27;;;;;;;;;;5110000;27;20400;-78
2022/09/29 11:06:38;;;;;;;3.05;1.30;;;;;;;;;;5110221;27;20389;-77
2022/09/29 11:09:18;;;;;;;3.33;1.08;;;;;;;;;;5172435;27;20114;-75
2022/09/29 11:11:47;;;;;;;2.42;1.15;;;;;;;;;;5150750;27;20023;-77
2022/09/29 11:14:29;;;;;;;2.72;1.15;;;;;;;;;;5151026;27;20019;-81
2022/09/29 11:16:57;;;;;;;5.13;1.40;;;;;;;;;;5150267;27;20023;-77
2022/09/29 11:19:23;;;;;;;3.30;1.48;;;;;;;;;;5149423;27;20015;-75
2022/09/29 11:21:49;;;;;;;1.60;1.08;;;;;;;;;;5147468;27;20027;-76
2022/09/29 11:24:21;;;;;;;4.10;1.33;;;;;;;;;;5147305;27;20425;-76
2022/09/29 11:26:59;;;;;;;2.88;1.30;;;;;;;;;;5147870;27;20437;-77
2022/09/29 11:29:25;;;;;;;3.88;1.20;;;;;;;;;;5148699;27;20026;-77
2022/09/29 11:32:05;;;;;;;3.75;1.27;;;;;;;;;;5146995;27;20023;-77
2022/09/29 11:34:34;;;;;;;3.33;1.27;;;;;;;;;;5147213;27;20035;-76
2022/09/29 11:37:36;;;;;;;3.00;1.25;;;;;;;;;;5106264;27;20392;-81
2022/09/29 11:40:53;;;;;;;2.72;1.42;;;;;;;;;;5066864;28;21132;-77
2022/09/29 11:43:28;;;;;;;4.25;0.90;;;;;;;;;;5068645;28;20023;-77
2022/09/29 11:45:54;;;;;;;2.20;1.17;;;;;;;;;;5067351;28;20020;-77
2022/09/29 11:48:28;;;;;;;2.80;1.20;;;;;;;;;;5068937;28;20028;-78
2022/09/29 11:51:12;;;;;;;4.75;1.48;;;;;;;;;;5070312;28;20020;-81
2022/09/29 11:53:50;;;;;;;2.72;1.27;;;;;;;;;;5069824;28;20059;-81
2022/09/29 11:56:50;;;;;;;2.60;1.27;;;;;;;;;;5111083;27;20625;-84
2022/09/29 11:59:34;;;;;;;3.03;1.48;;;;;;;;;;5110813;28;20077;-83
2022/09/29 12:02:16;;;;;;;4.05;1.60;;;;;;;;;;5109796;28;20027;-78
2022/09/29 12:07:15;;;;;;;4.50;1.60;;;;;;;;;;5093141;27;20410;-72
2022/09/29 12:10:00;;;;;;;2.53;1.27;;;;;;;;;;5087399;28;20040;-71
2022/09/29 12:12:28;;;;;;;3.80;1.35;;;;;;;;;;5090073;28;20848;-72
2022/09/29 12:15:13;;;;;;;3.25;1.48;;;;;;;;;;5108506;27;20458;-72
2022/09/29 12:18:59;;;;;;;5.35;1.67;;;;;;;;;;5108337;27;20828;-74
2022/09/29 12:21:31;;;;;;;3.55;1.35;;;;;;;;;;5101026;28;20094;-73
2022/09/29 12:23:58;;;;;;;2.03;1.38;;;;;;;;;;5091954;28;20021;-72
2022/09/29 12:26:24;;;;;;;3.22;1.38;;;;;;;;;;5089922;28;20063;-72
2022/09/29 12:31:03;;;;;;;3.03;1.25;;;;;;;;;;5110269;27;20803;-72
2022/09/29 12:33:33;;;;;;;2.30;1.30;;;;;;;;;;5109301;28;20043;-72
2022/09/29 12:40:15;;;;;;;5.97;1.20;;;;;;;;;;5110700;27;20839;-73
2022/09/29 12:43:23;;;;;;;2.83;1.52;;;;;;;;;;5029539;28;20453;-73
2022/09/29 12:47:15;;;;;;;5.63;1.40;;;;;;;;;;5110256;27;20396;-72
2022/09/29 12:50:02;;;;;;;1.83;1.30;;;;;;;;;;5100184;28;20050;-71
2022/09/29 12:53:21;;;;;;;2.78;1.13;;;;;;;;;;5098403;27;20431;-70
2022/09/29 12:55:54;;;;;;;4.57;1.27;;;;;;;;;;5110198;28;20581;-70
2022/09/29 12:58:32;;;;;;;3.05;1.05;;;;;;;;;;5110953;28;20082;-70
2022/09/29 13:01:02;;;;;;;3.70;1.20;;;;;;;;;;5109181;28;20036;-70
2022/09/29 13:03:30;;;;;;;2.45;1.20;;;;;;;;;;5108284;28;20290;-70
2022/09/29 13:06:08;;;;;;;2.03;0.90;;;;;;;;;;5103577;28;20028;-76
2022/09/29 13:08:41;;;;;;;3.38;1.20;;;;;;;;;;5087162;28;20024;-73
2022/09/29 13:11:13;;;;;;;1.83;1.05;;;;;;;;;;5088390;28;20025;-74
2022/09/29 13:13:43;;;;;;;2.55;1.30;;;;;;;;;;5088748;28;20035;-74
2022/09/29 13:16:12;;;;;;;3.28;1.20;;;;;;;;;;5087168;28;20021;-74
2022/09/29 13:18:56;;;;;;;4.47;2.50;;;;;;;;;;5088323;28;20099;-75
2022/09/29 13:21:49;;;;;;;2.15;1.15;;;;;;;;;;5110008;27;21000;-73
2022/09/29 13:25:06;;;;;;;3.78;1.60;;;;;;;;;;5111315;27;20503;-73
2022/09/29 13:27:36;;;;;;;2.17;1.20;;;;;;;;;;5074300;28;20035;-73
2022/09/29 13:31:07;;;;;;;4.43;1.42;;;;;;;;;;5111078;27;20587;-73
2022/09/29 13:33:34;;;;;;;3.42;1.50;;;;;;;;;;5111246;28;20028;-73
2022/09/29 13:36:01;;;;;;;1.48;1.15;;;;;;;;;;5111104;28;20472;-73
2022/09/29 13:38:36;;;;;;;2.65;1.13;;;;;;;;;;5110935;28;20024;-73
2022/09/29 13:42:36;;;;;;;1.95;1.13;;;;;;;;;;5173261;27;20175;-72
2022/09/29 13:45:24;;;;;;;2.47;1.27;;;;;;;;;;5152156;27;20035;-73
2022/09/29 13:47:50;;;;;;;3.83;1.75;;;;;;;;;;5152377;27;20039;-72
2022/09/29 13:51:21;;;;;;;3.00;1.23;;;;;;;;;;5111428;27;20450;-74
2022/09/29 13:54:07;;;;;;;2.05;0.90;;;;;;;;;;5110637;28;20054;-73
2022/09/29 13:56:33;;;;;;;6.07;1.17;;;;;;;;;;5110918;28;20027;-73
2022/09/29 13:59:01;;;;;;;3.13;1.38;;;;;;;;;;5110551;28;20360;-73
2022/09/29 14:01:37;;;;;;;2.88;0.90;;;;;;;;;;5110925;28;20108;-73
2022/09/29 14:05:22;;;;;;;5.40;0.90;;;;;;;;;;5111369;27;20843;-73
2022/09/29 14:07:50;;;;;;;3.50;1.48;;;;;;;;;;5110700;28;20089;-73
2022/09/29 14:10:34;;;;;;;6.63;2.13;;;;;;;;;;5111110;28;20111;-72
2022/09/29 14:13:06;;;;;;;4.53;2.15;;;;;;;;;;5110675;28;20020;-72
2022/09/29 14:15:34;;;;;;;8.70;2.77;;;;;;;;;;5110994;28;20035;-74
2022/09/29 14:18:04;;;;;;;4.85;2.65;;;;;;;;;;5111095;28;20028;-72
2022/09/29 14:20:34;;;;;;;19.90;10.05;;;;;;;;;;5110574;28;20464;-73
2022/09/29 14:23:02;;;;;;;15.18;7.75;;;;;;;;;;5109536;28;20024;-73
2022/09/29 14:25:49;;;;;;;10.20;3.88;;;;;;;;;;5111498;27;20541;-73
2022/09/29 14:28:30;;;;;;;6.82;2.95;;;;;;;;;;5110838;28;20024;-73
2022/09/29 14:30:59;;;;;;;4.85;2.13;;;;;;;;;;5111259;28;20020;-72
2022/09/29 14:33:26;;;;;;;4.97;2.05;;;;;;;;;;5111153;28;20426;-73
2022/09/29 14:36:01;;;;;;;4.07;1.55;;;;;;;;;;5110699;28;20024;-73
2022/09/29 14:38:32;;;;;;;3.17;1.80;;;;;;;;;;5109790;28;20035;-73
2022/09/29 14:41:04;;;;;;;2.22;1.38;;;;;;;;;;5110891;28;20496;-73
2022/09/29 14:43:44;;;;;;;4.05;2.10;;;;;;;;;;5110898;28;20052;-73
2022/09/29 14:56:39;;;;;;;3.35;1.50;;;;;;;;;;5131106;27;20108;-73
2022/09/29 15:02:40;;;;;;;5.78;3.03;;;;;;;;;;5110692;27;20597;-73
2022/09/29 15:05:27;;;;;;;6.13;2.53;;;;;;;;;;5111167;28;20020;-73
2022/09/29 15:07:53;;;;;;;5.35;2.13;;;;;;;;;;5111106;28;20031;-73
2022/09/29 15:12:19;;;;;;;6.60;3.30;;;;;;;;;;5111111;27;20620;-73
2022/09/29 15:14:45;;;;;;;6.70;3.33;;;;;;;;;;5110048;28;20056;-73
2022/09/29 15:17:14;;;;;;;5.78;2.58;;;;;;;;;;5110807;28;20443;-73
2022/09/29 15:19:40;;;;;;;5.65;2.85;;;;;;;;;;5111120;28;20115;-73
2022/09/29 15:22:19;;;;;;;3.80;2.22;;;;;;;;;;5110952;28;20028;-73
2022/09/29 15:24:54;;;;;;;6.82;3.13;;;;;;;;;;5110664;28;20511;-73
2022/09/29 15:27:21;;;;;;;5.78;2.47;;;;;;;;;;5111102;28;20380;-73
2022/09/29 15:35:04;;;;;;;9.70;3.25;;;;;;;;;;5111562;27;20422;-73
2022/09/29 15:38:17;;;;;;;9.15;2.45;;;;;;;;;;5111128;27;20109;-74
2022/09/29 15:40:44;;;;;;;7.57;2.63;;;;;;;;;;5111217;28;20476;-74
2022/09/29 15:43:21;;;;;;;5.25;2.70;;;;;;;;;;5111181;28;20020;-73
2022/09/29 15:46:13;;;;;;;4.95;2.17;;;;;;;;;;5110706;28;20016;-73
2022/09/29 15:50:43;;;;;;;5.47;2.13;;;;;;;;;;5111240;27;20446;-73
2022/09/29 15:53:10;;;;;;;5.40;2.05;;;;;;;;;;5110869;28;20089;-74
2022/09/29 15:55:36;;;;;;;4.65;2.05;;;;;;;;;;5109739;28;20115;-73
2022/09/29 15:58:23;;;;;;;7.78;2.58;;;;;;;;;;5111095;28;20052;-73
2022/09/29 16:01:02;;;;;;;8.13;2.83;;;;;;;;;;5111382;27;20566;-73
2022/09/29 16:03:41;;;;;;;3.88;2.13;;;;;;;;;;5111100;28;20039;-73
2022/09/29 16:09:19;;;;;;;9.38;3.10;;;;;;;;;;5111211;27;20401;-73
2022/09/29 16:16:10;;;;;;;7.80;3.65;;;;;;;;;;5111420;27;20400;-73
2022/09/29 16:18:39;;;;;;;7.63;2.85;;;;;;;;;;5109972;28;20115;-73
2022/09/29 16:21:13;;;;;;;5.93;3.13;;;;;;;;;;5110551;28;20116;-73
2022/09/29 16:23:42;;;;;;;7.03;3.38;;;;;;;;;;5111797;28;20035;-73
2022/09/29 16:26:09;;;;;;;7.50;3.50;;;;;;;;;;5111056;28;20027;-73
2022/09/29 16:28:37;;;;;;;6.90;3.08;;;;;;;;;;5110636;28;20020;-74
2022/09/29 16:33:53;;;;;;;6.30;2.83;;;;;;;;;;5090538;28;20386;-74
2022/09/29 16:36:19;;;;;;;;;;;;;;;;;;5091406;28;20472;-74
2022/09/29 16:40:24;;;;;;;7.07;2.85;;;;;;;;;;5173367;27;20106;-74
2022/09/29 16:43:31;;;;;;;8.13;3.45;;;;;;;;;;5111428;27;20393;-74
2022/09/29 16:46:00;;;;;;;5.82;2.65;;;;;;;;;;5109935;28;20027;-74
2022/09/29 16:49:43;;;;;;;8.40;2.90;;;;;;;;;;5111009;27;20449;-74
2022/09/29 16:53:57;;;;;;;7.47;5.20;;;;;;;;;;5111352;27;20389;-73
2022/09/29 16:56:32;;;;;;;10.38;5.45;;;;;;;;;;5110777;28;20027;-73
2022/09/29 17:00:59;;;;;;;6.90;4.20;;;;;;;;;;5105985;27;1415038;-74
2022/09/29 17:03:25;;;;;;;9.55;4.13;;;;;;;;;;5131362;28;20039;-73
2022/09/29 17:05:52;;;;;;;7.60;4.10;;;;;;;;;;5131639;28;20023;-73
2022/09/29 17:08:23;;;;;;;9.27;4.20;;;;;;;;;;5131696;27;20027;-74
2022/09/29 17:10:50;;;;;;;9.77;4.43;;;;;;;;;;5131147;28;20027;-74
2022/09/29 17:15:22;;;;;;;12.60;6.43;;;;;;;;;;5111423;27;20605;-73
2022/09/29 17:21:40;;;;;;;10.35;5.53;;;;;;;;;;5070289;28;20421;-72
2022/09/29 17:30:22;;;;;;;9.98;4.07;;;;;;;;;;5110717;27;20119;-73
2022/09/29 17:34:10;;;;;;;9.05;4.15;;;;;;;;;;5070983;28;20403;-75
2022/09/29 17:36:38;;;;;;;8.15;4.13;;;;;;;;;;5069419;28;20032;-73
2022/09/29 17:41:15;;;;;;;8.27;3.88;;;;;;;;;;5112586;27;20761;-73
2022/09/29 17:43:52;;;;;;;11.50;4.32;;;;;;;;;;5110855;27;20422;-73
2022/09/29 17:47:30;;;;;;;11.43;4.35;;;;;;;;;;5173138;27;20476;-72
2022/09/29 17:51:31;;;;;;;7.00;3.50;;;;;;;;;;5110993;27;20469;-73
2022/09/29 17:56:20;;;;;;;7.30;3.50;;;;;;;;;;5111006;27;20429;-73
2022/09/29 17:59:40;;;;;;;8.52;4.78;;;;;;;;;;5110895;27;20112;-72
2022/09/29 18:02:14;;;;;;;12.68;5.78;;;;;;;;;;5111197;28;20410;-72
2022/09/29 18:04:53;;;;;;;8.70;4.72;;;;;;;;;;5111171;27;20557;-72
2022/09/29 18:07:19;;;;;;;11.43;4.18;;;;;;;;;;5110777;28;20544;-73